sensor_id;sensor_type;location;lat;lon;timestamp;pressure;altitude;pressure_sealevel;temperature;humidity
20895;BME280;10607;42.066;24.742;2022-08-19T00:01:23;97750.00;;;27.38;44.47
20895;BME280;10607;42.066;24.742;2022-08-19T00:03:48;97758.09;;;27.38;45.56
20895;BME280;10607;42.066;24.742;2022-08-19T00:06:14;97752.19;;;27.26;46.03
20895;BME280;10607;42.066;24.742;2022-08-19T00:08:40;97757.59;;;27.10;46.78
20895;BME280;10607;42.066;24.742;2022-08-19T00:11:06;97755.41;;;26.97;47.56
20895;BME280;10607;42.066;24.742;2022-08-19T00:13:33;97751.50;;;27.00;47.07
20895;BME280;10607;42.066;24.742;2022-08-19T00:15:59;97746.97;;;26.92;46.79
20895;BME280;10607;42.066;24.742;2022-08-19T00:18:25;97749.69;;;26.84;47.01
20895;BME280;10607;42.066;24.742;2022-08-19T00:20:51;97743.75;;;26.72;47.06
20895;BME280;10607;42.066;24.742;2022-08-19T00:23:16;97749.53;;;26.77;46.85
20895;BME280;10607;42.066;24.742;2022-08-19T00:25:42;97742.56;;;26.74;47.10
20895;BME280;10607;42.066;24.742;2022-08-19T00:28:07;97752.69;;;26.72;47.25
20895;BME280;10607;42.066;24.742;2022-08-19T00:30:33;97737.38;;;26.73;47.05
20895;BME280;10607;42.066;24.742;2022-08-19T00:32:59;97737.16;;;26.66;47.51
20895;BME280;10607;42.066;24.742;2022-08-19T00:35:24;97730.94;;;26.66;47.05
20895;BME280;10607;42.066;24.742;2022-08-19T00:37:52;97721.13;;;26.56;47.92
20895;BME280;10607;42.066;24.742;2022-08-19T00:40:19;97721.28;;;26.55;47.51
20895;BME280;10607;42.066;24.742;2022-08-19T00:42:45;97715.88;;;26.55;48.14
20895;BME280;10607;42.066;24.742;2022-08-19T00:45:14;97712.16;;;26.56;47.54
20895;BME280;10607;42.066;24.742;2022-08-19T00:47:44;97713.19;;;26.55;47.44
20895;BME280;10607;42.066;24.742;2022-08-19T00:50:13;97717.91;;;26.53;47.40
20895;BME280;10607;42.066;24.742;2022-08-19T00:52:42;97713.34;;;26.53;47.55
20895;BME280;10607;42.066;24.742;2022-08-19T00:55:13;97717.41;;;26.49;48.16
20895;BME280;10607;42.066;24.742;2022-08-19T00:57:42;97715.38;;;26.43;48.10
20895;BME280;10607;42.066;24.742;2022-08-19T01:00:13;97709.44;;;26.40;47.85
20895;BME280;10607;42.066;24.742;2022-08-19T01:02:40;97701.72;;;26.53;47.73
20895;BME280;10607;42.066;24.742;2022-08-19T01:05:09;97696.31;;;26.45;48.03
20895;BME280;10607;42.066;24.742;2022-08-19T01:07:37;97694.28;;;26.55;47.69
20895;BME280;10607;42.066;24.742;2022-08-19T01:10:07;97697.66;;;26.49;47.17
20895;BME280;10607;42.066;24.742;2022-08-19T01:12:33;97689.41;;;26.50;46.95
20895;BME280;10607;42.066;24.742;2022-08-19T01:15:00;97691.75;;;26.45;47.27
20895;BME280;10607;42.066;24.742;2022-08-19T01:17:25;97691.59;;;26.38;47.39
20895;BME280;10607;42.066;24.742;2022-08-19T01:19:51;97686.00;;;26.32;47.38
20895;BME280;10607;42.066;24.742;2022-08-19T01:22:27;97689.03;;;26.29;47.49
20895;BME280;10607;42.066;24.742;2022-08-19T01:24:54;97687.34;;;26.20;48.29
20895;BME280;10607;42.066;24.742;2022-08-19T01:27:20;97688.53;;;26.17;47.88
20895;BME280;10607;42.066;24.742;2022-08-19T01:29:45;97693.75;;;26.35;46.99
20895;BME280;10607;42.066;24.742;2022-08-19T01:32:13;97695.78;;;26.33;46.74
20895;BME280;10607;42.066;24.742;2022-08-19T01:34:40;97694.78;;;26.34;46.27
20895;BME280;10607;42.066;24.742;2022-08-19T01:37:10;97698.84;;;26.38;46.33
20895;BME280;10607;42.066;24.742;2022-08-19T01:39:37;97692.06;;;26.26;47.16
20895;BME280;10607;42.066;24.742;2022-08-19T01:42:04;97703.19;;;26.23;46.12
20895;BME280;10607;42.066;24.742;2022-08-19T01:44:30;97702.34;;;26.22;47.10
20895;BME280;10607;42.066;24.742;2022-08-19T01:46:56;97707.38;;;26.09;47.81
20895;BME280;10607;42.066;24.742;2022-08-19T01:49:23;97712.91;;;25.99;48.35
20895;BME280;10607;42.066;24.742;2022-08-19T01:51:50;97726.22;;;25.92;48.49
20895;BME280;10607;42.066;24.742;2022-08-19T01:54:18;97732.88;;;25.80;48.56
20895;BME280;10607;42.066;24.742;2022-08-19T01:56:43;97741.28;;;25.77;48.32
20895;BME280;10607;42.066;24.742;2022-08-19T01:59:17;97738.38;;;25.96;48.14
20895;BME280;10607;42.066;24.742;2022-08-19T02:01:44;97737.22;;;26.07;48.06
20895;BME280;10607;42.066;24.742;2022-08-19T02:04:10;97745.28;;;25.99;48.67
20895;BME280;10607;42.066;24.742;2022-08-19T02:06:35;97745.53;;;25.88;48.82
20895;BME280;10607;42.066;24.742;2022-08-19T02:09:02;97753.28;;;25.83;50.21
20895;BME280;10607;42.066;24.742;2022-08-19T02:11:32;97746.31;;;25.72;50.38
20895;BME280;10607;42.066;24.742;2022-08-19T02:14:03;97746.13;;;25.73;49.48
20895;BME280;10607;42.066;24.742;2022-08-19T02:16:30;97755.94;;;25.74;49.64
20895;BME280;10607;42.066;24.742;2022-08-19T02:18:56;97761.56;;;25.55;50.42
20895;BME280;10607;42.066;24.742;2022-08-19T02:21:23;97768.44;;;25.49;51.04
20895;BME280;10607;42.066;24.742;2022-08-19T02:23:49;97769.44;;;25.48;49.76
20895;BME280;10607;42.066;24.742;2022-08-19T02:26:15;97770.50;;;25.55;49.87
20895;BME280;10607;42.066;24.742;2022-08-19T02:28:41;97767.66;;;25.57;49.43
20895;BME280;10607;42.066;24.742;2022-08-19T02:31:16;97764.28;;;25.55;50.88
20895;BME280;10607;42.066;24.742;2022-08-19T02:33:43;97764.97;;;25.57;49.90
20895;BME280;10607;42.066;24.742;2022-08-19T02:36:09;97766.34;;;25.69;49.81
20895;BME280;10607;42.066;24.742;2022-08-19T02:38:35;97768.72;;;25.72;49.86
20895;BME280;10607;42.066;24.742;2022-08-19T02:41:05;97776.13;;;25.70;49.92
20895;BME280;10607;42.066;24.742;2022-08-19T02:43:33;97775.06;;;25.63;49.57
20895;BME280;10607;42.066;24.742;2022-08-19T02:46:13;97775.94;;;25.64;49.44
20895;BME280;10607;42.066;24.742;2022-08-19T02:48:39;97767.31;;;25.60;49.34
20895;BME280;10607;42.066;24.742;2022-08-19T02:51:04;97774.56;;;25.60;49.39
20895;BME280;10607;42.066;24.742;2022-08-19T02:53:30;97776.56;;;25.57;49.27
20895;BME280;10607;42.066;24.742;2022-08-19T02:55:56;97770.66;;;25.54;49.91
20895;BME280;10607;42.066;24.742;2022-08-19T02:58:23;97776.53;;;25.49;49.87
20895;BME280;10607;42.066;24.742;2022-08-19T03:00:51;97773.44;;;25.44;49.86
20895;BME280;10607;42.066;24.742;2022-08-19T03:03:18;97785.09;;;25.45;49.39
20895;BME280;10607;42.066;24.742;2022-08-19T03:05:44;97779.31;;;25.40;49.63
20895;BME280;10607;42.066;24.742;2022-08-19T03:08:11;97776.41;;;25.33;49.59
20895;BME280;10607;42.066;24.742;2022-08-19T03:10:42;97781.97;;;25.31;49.92
20895;BME280;10607;42.066;24.742;2022-08-19T03:13:13;97783.81;;;25.31;49.92
20895;BME280;10607;42.066;24.742;2022-08-19T03:15:41;97788.38;;;25.30;49.65
20895;BME280;10607;42.066;24.742;2022-08-19T03:18:06;97783.28;;;25.27;50.53
20895;BME280;10607;42.066;24.742;2022-08-19T03:20:32;97784.59;;;25.23;50.44
20895;BME280;10607;42.066;24.742;2022-08-19T03:22:58;97787.13;;;25.25;49.94
20895;BME280;10607;42.066;24.742;2022-08-19T03:25:23;97788.66;;;25.27;50.25
20895;BME280;10607;42.066;24.742;2022-08-19T03:27:49;97800.59;;;25.25;50.26
20895;BME280;10607;42.066;24.742;2022-08-19T03:30:14;97799.16;;;25.30;49.79
20895;BME280;10607;42.066;24.742;2022-08-19T03:32:40;97795.56;;;25.30;49.61
20895;BME280;10607;42.066;24.742;2022-08-19T03:35:06;97797.06;;;25.24;50.15
20895;BME280;10607;42.066;24.742;2022-08-19T03:37:31;97793.06;;;25.28;50.31
20895;BME280;10607;42.066;24.742;2022-08-19T03:39:57;97795.91;;;25.27;49.96
20895;BME280;10607;42.066;24.742;2022-08-19T03:42:22;97799.28;;;25.29;49.70
20895;BME280;10607;42.066;24.742;2022-08-19T03:44:48;97800.81;;;25.31;50.07
20895;BME280;10607;42.066;24.742;2022-08-19T03:47:13;97793.41;;;25.33;49.33
20895;BME280;10607;42.066;24.742;2022-08-19T03:49:42;97797.97;;;25.33;49.44
20895;BME280;10607;42.066;24.742;2022-08-19T03:52:07;97804.75;;;25.37;49.27
20895;BME280;10607;42.066;24.742;2022-08-19T03:54:33;97801.56;;;25.42;49.06
20895;BME280;10607;42.066;24.742;2022-08-19T03:56:59;97800.03;;;25.39;49.54
20895;BME280;10607;42.066;24.742;2022-08-19T03:59:32;97807.16;;;25.48;49.67
20895;BME280;10607;42.066;24.742;2022-08-19T04:02:00;97806.66;;;25.45;49.12
20895;BME280;10607;42.066;24.742;2022-08-19T04:04:26;97805.69;;;25.54;49.24
20895;BME280;10607;42.066;24.742;2022-08-19T04:06:52;97813.50;;;25.65;48.97
20895;BME280;10607;42.066;24.742;2022-08-19T04:09:19;97814.22;;;25.75;48.67
20895;BME280;10607;42.066;24.742;2022-08-19T04:11:49;97812.06;;;25.79;49.23
20895;BME280;10607;42.066;24.742;2022-08-19T04:14:20;97812.59;;;25.83;49.12
20895;BME280;10607;42.066;24.742;2022-08-19T04:16:47;97813.50;;;25.91;48.70
20895;BME280;10607;42.066;24.742;2022-08-19T04:19:14;97811.88;;;25.99;48.99
20895;BME280;10607;42.066;24.742;2022-08-19T04:21:40;97808.53;;;26.05;48.53
20895;BME280;10607;42.066;24.742;2022-08-19T04:24:11;97815.44;;;26.07;48.44
20895;BME280;10607;42.066;24.742;2022-08-19T04:26:37;97820.34;;;26.12;48.80
20895;BME280;10607;42.066;24.742;2022-08-19T04:29:23;97822.22;;;26.20;48.30
20895;BME280;10607;42.066;24.742;2022-08-19T04:31:51;97823.25;;;26.27;48.54
20895;BME280;10607;42.066;24.742;2022-08-19T04:34:19;97826.66;;;26.37;48.37
20895;BME280;10607;42.066;24.742;2022-08-19T04:36:49;97816.22;;;26.34;48.74
20895;BME280;10607;42.066;24.742;2022-08-19T04:39:23;97819.09;;;26.41;48.98
20895;BME280;10607;42.066;24.742;2022-08-19T04:42:09;97819.44;;;26.54;48.46
20895;BME280;10607;42.066;24.742;2022-08-19T04:44:53;97822.72;;;26.66;47.95
20895;BME280;10607;42.066;24.742;2022-08-19T04:47:18;97815.81;;;26.71;48.13
20895;BME280;10607;42.066;24.742;2022-08-19T04:49:43;97818.53;;;26.80;47.74
20895;BME280;10607;42.066;24.742;2022-08-19T04:52:09;97821.75;;;26.83;49.50
20895;BME280;10607;42.066;24.742;2022-08-19T04:54:34;97814.50;;;26.92;50.30
20895;BME280;10607;42.066;24.742;2022-08-19T04:57:00;97817.22;;;27.00;51.05
20895;BME280;10607;42.066;24.742;2022-08-19T04:59:25;97823.28;;;27.10;48.69
20895;BME280;10607;42.066;24.742;2022-08-19T05:01:50;97830.19;;;27.05;51.28
20895;BME280;10607;42.066;24.742;2022-08-19T05:04:19;97827.66;;;27.11;50.98
20895;BME280;10607;42.066;24.742;2022-08-19T05:06:46;97829.38;;;27.12;51.46
20895;BME280;10607;42.066;24.742;2022-08-19T05:09:12;97834.41;;;27.07;49.63
20895;BME280;10607;42.066;24.742;2022-08-19T05:11:38;97820.59;;;27.18;48.73
20895;BME280;10607;42.066;24.742;2022-08-19T05:14:05;97831.03;;;27.22;47.66
20895;BME280;10607;42.066;24.742;2022-08-19T05:16:31;97843.72;;;27.21;47.75
20895;BME280;10607;42.066;24.742;2022-08-19T05:18:57;97841.06;;;27.29;49.84
20895;BME280;10607;42.066;24.742;2022-08-19T05:21:41;97846.97;;;27.41;49.70
20895;BME280;10607;42.066;24.742;2022-08-19T05:24:26;97850.50;;;27.50;49.31
20895;BME280;10607;42.066;24.742;2022-08-19T05:26:53;97851.03;;;27.45;49.19
20895;BME280;10607;42.066;24.742;2022-08-19T05:29:22;97840.69;;;27.49;49.55
20895;BME280;10607;42.066;24.742;2022-08-19T05:31:49;97838.34;;;27.46;49.12
20895;BME280;10607;42.066;24.742;2022-08-19T05:34:17;97844.41;;;27.56;49.14
20895;BME280;10607;42.066;24.742;2022-08-19T05:36:44;97842.03;;;27.61;48.39
20895;BME280;10607;42.066;24.742;2022-08-19T05:39:13;97846.03;;;27.82;47.29
20895;BME280;10607;42.066;24.742;2022-08-19T05:41:46;97845.34;;;28.04;46.22
20895;BME280;10607;42.066;24.742;2022-08-19T05:44:13;97842.06;;;28.17;48.12
20895;BME280;10607;42.066;24.742;2022-08-19T05:46:39;97846.97;;;28.22;47.36
20895;BME280;10607;42.066;24.742;2022-08-19T05:49:06;97843.38;;;28.29;47.55
20895;BME280;10607;42.066;24.742;2022-08-19T05:51:33;97848.22;;;28.42;47.34
20895;BME280;10607;42.066;24.742;2022-08-19T05:53:59;97833.50;;;28.53;47.45
20895;BME280;10607;42.066;24.742;2022-08-19T05:56:25;97842.69;;;28.67;47.15
20895;BME280;10607;42.066;24.742;2022-08-19T05:58:51;97846.69;;;28.79;46.64
20895;BME280;10607;42.066;24.742;2022-08-19T06:01:18;97849.66;;;28.92;46.62
20895;BME280;10607;42.066;24.742;2022-08-19T06:03:44;97848.63;;;28.93;47.02
20895;BME280;10607;42.066;24.742;2022-08-19T06:06:12;97854.16;;;29.00;47.48
20895;BME280;10607;42.066;24.742;2022-08-19T06:08:38;97854.47;;;29.05;47.62
20895;BME280;10607;42.066;24.742;2022-08-19T06:11:23;97853.66;;;29.05;48.16
20895;BME280;10607;42.066;24.742;2022-08-19T06:13:53;97863.78;;;29.11;47.87
20895;BME280;10607;42.066;24.742;2022-08-19T06:16:20;97854.50;;;29.28;47.32
20895;BME280;10607;42.066;24.742;2022-08-19T06:18:52;97855.47;;;29.35;47.81
20895;BME280;10607;42.066;24.742;2022-08-19T06:21:22;97852.13;;;29.48;46.62
20895;BME280;10607;42.066;24.742;2022-08-19T06:23:49;97862.53;;;29.60;46.72
20895;BME280;10607;42.066;24.742;2022-08-19T06:26:17;97861.63;;;29.67;45.79
20895;BME280;10607;42.066;24.742;2022-08-19T06:28:42;97867.47;;;29.79;44.82
20895;BME280;10607;42.066;24.742;2022-08-19T06:31:23;97865.69;;;29.71;46.02
20895;BME280;10607;42.066;24.742;2022-08-19T06:33:49;97871.25;;;29.70;45.41
20895;BME280;10607;42.066;24.742;2022-08-19T06:36:27;97862.50;;;29.83;45.98
20895;BME280;10607;42.066;24.742;2022-08-19T06:38:57;97873.47;;;30.04;45.50
20895;BME280;10607;42.066;24.742;2022-08-19T06:41:26;97872.44;;;30.20;44.28
20895;BME280;10607;42.066;24.742;2022-08-19T06:43:52;97876.69;;;30.37;45.54
20895;BME280;10607;42.066;24.742;2022-08-19T06:46:18;97880.69;;;30.56;45.23
20895;BME280;10607;42.066;24.742;2022-08-19T06:48:45;97876.72;;;30.59;44.96
20895;BME280;10607;42.066;24.742;2022-08-19T06:51:11;97881.88;;;30.69;45.01
20895;BME280;10607;42.066;24.742;2022-08-19T06:53:36;97880.47;;;30.73;44.19
20895;BME280;10607;42.066;24.742;2022-08-19T06:56:02;97889.09;;;30.76;43.55
20895;BME280;10607;42.066;24.742;2022-08-19T06:58:31;97886.66;;;30.67;43.81
20895;BME280;10607;42.066;24.742;2022-08-19T07:01:03;97887.13;;;30.70;43.47
20895;BME280;10607;42.066;24.742;2022-08-19T07:03:30;97880.91;;;30.91;43.43
20895;BME280;10607;42.066;24.742;2022-08-19T07:05:58;97881.03;;;31.05;43.41
20895;BME280;10607;42.066;24.742;2022-08-19T07:08:27;97877.44;;;31.19;43.29
20895;BME280;10607;42.066;24.742;2022-08-19T07:10:52;97875.22;;;31.29;43.18
20895;BME280;10607;42.066;24.742;2022-08-19T07:13:18;97881.41;;;31.38;42.80
20895;BME280;10607;42.066;24.742;2022-08-19T07:15:44;97870.84;;;31.50;42.49
20895;BME280;10607;42.066;24.742;2022-08-19T07:18:11;97867.38;;;31.63;43.54
20895;BME280;10607;42.066;24.742;2022-08-19T07:20:37;97871.88;;;31.77;41.59
20895;BME280;10607;42.066;24.742;2022-08-19T07:23:04;97873.88;;;31.90;43.09
20895;BME280;10607;42.066;24.742;2022-08-19T07:25:29;97870.88;;;32.06;42.53
20895;BME280;10607;42.066;24.742;2022-08-19T07:27:54;97863.16;;;32.16;42.19
20895;BME280;10607;42.066;24.742;2022-08-19T07:30:20;97868.91;;;32.28;41.93
20895;BME280;10607;42.066;24.742;2022-08-19T07:32:47;97872.94;;;32.39;41.99
20895;BME280;10607;42.066;24.742;2022-08-19T07:35:13;97872.13;;;32.45;41.39
20895;BME280;10607;42.066;24.742;2022-08-19T07:37:39;97874.75;;;32.60;41.93
20895;BME280;10607;42.066;24.742;2022-08-19T07:40:09;97867.88;;;32.77;41.05
20895;BME280;10607;42.066;24.742;2022-08-19T07:42:35;97873.59;;;32.96;40.96
20895;BME280;10607;42.066;24.742;2022-08-19T07:45:00;97871.72;;;32.96;40.86
20895;BME280;10607;42.066;24.742;2022-08-19T07:47:26;97871.56;;;33.11;39.29
20895;BME280;10607;42.066;24.742;2022-08-19T07:49:52;97874.97;;;33.27;40.21
20895;BME280;10607;42.066;24.742;2022-08-19T07:52:18;97862.59;;;33.37;39.79
20895;BME280;10607;42.066;24.742;2022-08-19T07:54:43;97864.91;;;33.54;39.40
20895;BME280;10607;42.066;24.742;2022-08-19T07:57:09;97862.19;;;33.61;38.56
20895;BME280;10607;42.066;24.742;2022-08-19T07:59:34;97861.97;;;33.75;38.16
20895;BME280;10607;42.066;24.742;2022-08-19T08:02:01;97861.53;;;33.92;37.14
20895;BME280;10607;42.066;24.742;2022-08-19T08:04:28;97865.09;;;33.99;37.89
20895;BME280;10607;42.066;24.742;2022-08-19T08:07:12;97860.03;;;34.09;36.90
20895;BME280;10607;42.066;24.742;2022-08-19T08:09:56;97866.56;;;34.22;36.05
20895;BME280;10607;42.066;24.742;2022-08-19T08:12:25;97865.88;;;34.33;36.41
20895;BME280;10607;42.066;24.742;2022-08-19T08:14:55;97859.97;;;34.43;36.26
20895;BME280;10607;42.066;24.742;2022-08-19T08:17:23;97862.00;;;34.54;35.79
20895;BME280;10607;42.066;24.742;2022-08-19T08:19:50;97863.72;;;34.55;35.37
20895;BME280;10607;42.066;24.742;2022-08-19T08:22:18;97859.03;;;34.75;35.75
20895;BME280;10607;42.066;24.742;2022-08-19T08:25:11;97860.19;;;34.93;34.67
20895;BME280;10607;42.066;24.742;2022-08-19T08:27:44;97855.38;;;34.88;34.97
20895;BME280;10607;42.066;24.742;2022-08-19T08:30:16;97853.66;;;34.94;35.19
20895;BME280;10607;42.066;24.742;2022-08-19T08:32:42;97855.44;;;35.13;34.77
20895;BME280;10607;42.066;24.742;2022-08-19T08:35:18;97855.03;;;35.16;34.46
20895;BME280;10607;42.066;24.742;2022-08-19T08:37:46;97853.91;;;35.24;35.40
20895;BME280;10607;42.066;24.742;2022-08-19T08:40:23;97864.91;;;35.43;34.18
20895;BME280;10607;42.066;24.742;2022-08-19T08:43:08;97862.25;;;35.61;34.68
20895;BME280;10607;42.066;24.742;2022-08-19T08:45:41;97855.47;;;35.70;33.82
20895;BME280;10607;42.066;24.742;2022-08-19T08:48:32;58645.81;;;-146.21;100.00
20895;BME280;10607;42.066;24.742;2022-08-19T08:51:02;97849.66;;;36.04;33.13
20895;BME280;10607;42.066;24.742;2022-08-19T08:53:30;97852.81;;;36.07;32.50
20895;BME280;10607;42.066;24.742;2022-08-19T08:55:57;97856.72;;;36.11;32.63
20895;BME280;10607;42.066;24.742;2022-08-19T08:58:31;97854.59;;;36.20;32.64
20895;BME280;10607;42.066;24.742;2022-08-19T09:01:09;97854.59;;;36.20;32.64
20895;BME280;10607;42.066;24.742;2022-08-19T09:03:37;97853.22;;;36.66;32.07
20895;BME280;10607;42.066;24.742;2022-08-19T09:06:11;97846.19;;;36.70;31.33
20895;BME280;10607;42.066;24.742;2022-08-19T09:09:03;97841.38;;;36.84;31.55
20895;BME280;10607;42.066;24.742;2022-08-19T09:16:58;97832.34;;;36.95;31.96
20895;BME280;10607;42.066;24.742;2022-08-19T09:19:25;58645.81;;;-146.21;100.00
20895;BME280;10607;42.066;24.742;2022-08-19T09:21:50;58645.81;;;-146.21;100.00
20895;BME280;10607;42.066;24.742;2022-08-19T09:24:16;58645.81;;;-146.21;100.00
20895;BME280;10607;42.066;24.742;2022-08-19T09:26:41;58645.81;;;-146.21;100.00
20895;BME280;10607;42.066;24.742;2022-08-19T09:29:09;58645.81;;;-146.21;100.00
20895;BME280;10607;42.066;24.742;2022-08-19T09:31:35;58645.81;;;-146.21;100.00
20895;BME280;10607;42.066;24.742;2022-08-19T09:34:01;58645.81;;;-146.21;100.00
20895;BME280;10607;42.066;24.742;2022-08-19T09:36:30;58645.81;;;-146.21;100.00
20895;BME280;10607;42.066;24.742;2022-08-19T09:38:58;58645.81;;;-146.21;100.00
20895;BME280;10607;42.066;24.742;2022-08-19T09:41:25;58645.81;;;-146.21;100.00
20895;BME280;10607;42.066;24.742;2022-08-19T09:43:53;58645.81;;;-146.21;100.00
20895;BME280;10607;42.066;24.742;2022-08-19T09:46:23;58645.81;;;-146.21;100.00
20895;BME280;10607;42.066;24.742;2022-08-19T09:48:50;58645.81;;;-146.21;100.00
20895;BME280;10607;42.066;24.742;2022-08-19T09:51:25;58645.81;;;-146.21;100.00
20895;BME280;10607;42.066;24.742;2022-08-19T09:53:52;58645.81;;;-146.21;100.00
20895;BME280;10607;42.066;24.742;2022-08-19T09:56:20;58645.81;;;-146.21;100.00
20895;BME280;10607;42.066;24.742;2022-08-19T09:58:46;58645.81;;;-146.21;100.00
20895;BME280;10607;42.066;24.742;2022-08-19T10:01:26;58645.81;;;-146.21;100.00
20895;BME280;10607;42.066;24.742;2022-08-19T10:03:54;58645.81;;;-146.21;100.00
20895;BME280;10607;42.066;24.742;2022-08-19T10:06:22;58645.81;;;-146.21;100.00
20895;BME280;10607;42.066;24.742;2022-08-19T10:08:49;58645.81;;;-146.21;100.00
20895;BME280;10607;42.066;24.742;2022-08-19T10:11:17;58645.81;;;-146.21;100.00
20895;BME280;10607;42.066;24.742;2022-08-19T10:13:44;58645.81;;;-146.21;100.00
20895;BME280;10607;42.066;24.742;2022-08-19T10:16:16;58645.81;;;-146.21;100.00
20895;BME280;10607;42.066;24.742;2022-08-19T10:18:44;58645.81;;;-146.21;100.00
20895;BME280;10607;42.066;24.742;2022-08-19T10:21:13;58645.81;;;-146.21;100.00
20895;BME280;10607;42.066;24.742;2022-08-19T10:23:42;58645.81;;;-146.21;100.00
20895;BME280;10607;42.066;24.742;2022-08-19T10:26:13;58645.81;;;-146.21;100.00
20895;BME280;10607;42.066;24.742;2022-08-19T10:28:39;58645.81;;;-146.21;100.00
20895;BME280;10607;42.066;24.742;2022-08-19T10:31:10;58645.81;;;-146.21;100.00
20895;BME280;10607;42.066;24.742;2022-08-19T10:33:37;58645.81;;;-146.21;100.00
20895;BME280;10607;42.066;24.742;2022-08-19T10:36:11;58645.81;;;-146.21;100.00
20895;BME280;10607;42.066;24.742;2022-08-19T10:38:40;58645.81;;;-146.21;100.00
20895;BME280;10607;42.066;24.742;2022-08-19T10:41:16;58645.81;;;-146.21;100.00
20895;BME280;10607;42.066;24.742;2022-08-19T10:43:43;58645.81;;;-146.21;100.00
20895;BME280;10607;42.066;24.742;2022-08-19T10:46:12;58645.81;;;-146.21;100.00
20895;BME280;10607;42.066;24.742;2022-08-19T10:48:38;58645.81;;;-146.21;100.00
20895;BME280;10607;42.066;24.742;2022-08-19T10:51:03;58645.81;;;-146.21;100.00
20895;BME280;10607;42.066;24.742;2022-08-19T10:53:48;58645.81;;;-146.21;100.00
20895;BME280;10607;42.066;24.742;2022-08-19T10:56:14;58645.81;;;-146.21;100.00
20895;BME280;10607;42.066;24.742;2022-08-19T10:58:59;58645.81;;;-146.21;100.00
20895;BME280;10607;42.066;24.742;2022-08-19T11:01:27;58645.81;;;-146.21;100.00
20895;BME280;10607;42.066;24.742;2022-08-19T11:03:55;58645.81;;;-146.21;100.00
20895;BME280;10607;42.066;24.742;2022-08-19T11:06:22;58645.81;;;-146.21;100.00
20895;BME280;10607;42.066;24.742;2022-08-19T11:08:50;58645.81;;;-146.21;100.00
20895;BME280;10607;42.066;24.742;2022-08-19T11:11:15;58645.81;;;-146.21;100.00
20895;BME280;10607;42.066;24.742;2022-08-19T11:13:42;58645.81;;;-146.21;100.00
20895;BME280;10607;42.066;24.742;2022-08-19T11:16:15;58645.81;;;-146.21;100.00
20895;BME280;10607;42.066;24.742;2022-08-19T11:18:47;58645.81;;;-146.21;100.00
20895;BME280;10607;42.066;24.742;2022-08-19T11:21:23;58645.81;;;-146.21;100.00
20895;BME280;10607;42.066;24.742;2022-08-19T11:23:52;58645.81;;;-146.21;100.00
20895;BME280;10607;42.066;24.742;2022-08-19T11:26:20;58645.81;;;-146.21;100.00
20895;BME280;10607;42.066;24.742;2022-08-19T11:28:46;58645.81;;;-146.21;100.00
20895;BME280;10607;42.066;24.742;2022-08-19T11:31:17;58645.81;;;-146.21;100.00
20895;BME280;10607;42.066;24.742;2022-08-19T11:33:43;58645.81;;;-146.21;100.00
20895;BME280;10607;42.066;24.742;2022-08-19T11:36:09;58645.81;;;-146.21;100.00
20895;BME280;10607;42.066;24.742;2022-08-19T11:38:35;58645.81;;;-146.21;100.00
20895;BME280;10607;42.066;24.742;2022-08-19T11:41:06;58645.81;;;-146.21;100.00
20895;BME280;10607;42.066;24.742;2022-08-19T11:43:33;58645.81;;;-146.21;100.00
20895;BME280;10607;42.066;24.742;2022-08-19T11:45:59;58645.81;;;-146.21;100.00
20895;BME280;10607;42.066;24.742;2022-08-19T11:48:25;58645.81;;;-146.21;100.00
20895;BME280;10607;42.066;24.742;2022-08-19T11:50:52;58645.81;;;-146.21;100.00
20895;BME280;10607;42.066;24.742;2022-08-19T11:53:20;58645.81;;;-146.21;100.00
20895;BME280;10607;42.066;24.742;2022-08-19T11:55:47;58645.81;;;-146.21;100.00
20895;BME280;10607;42.066;24.742;2022-08-19T11:58:14;58645.81;;;-146.21;100.00
20895;BME280;10607;42.066;24.742;2022-08-19T12:00:41;58645.81;;;-146.21;100.00
20895;BME280;10607;42.066;24.742;2022-08-19T12:03:07;58645.81;;;-146.21;100.00
20895;BME280;10607;42.066;24.742;2022-08-19T12:05:33;58645.81;;;-146.21;100.00
20895;BME280;10607;42.066;24.742;2022-08-19T12:08:01;58645.81;;;-146.21;100.00
20895;BME280;10607;42.066;24.742;2022-08-19T12:10:26;58645.81;;;-146.21;100.00
20895;BME280;10607;42.066;24.742;2022-08-19T12:12:52;58645.81;;;-146.21;100.00
20895;BME280;10607;42.066;24.742;2022-08-19T12:15:17;58645.81;;;-146.21;100.00
20895;BME280;10607;42.066;24.742;2022-08-19T12:17:42;58645.81;;;-146.21;100.00
20895;BME280;10607;42.066;24.742;2022-08-19T12:20:11;58645.81;;;-146.21;100.00
20895;BME280;10607;42.066;24.742;2022-08-19T12:22:37;58645.81;;;-146.21;100.00
20895;BME280;10607;42.066;24.742;2022-08-19T12:25:04;58645.81;;;-146.21;100.00
20895;BME280;10607;42.066;24.742;2022-08-19T12:27:30;58645.81;;;-146.21;100.00
20895;BME280;10607;42.066;24.742;2022-08-19T12:29:56;58645.81;;;-146.21;100.00
20895;BME280;10607;42.066;24.742;2022-08-19T12:32:22;58645.81;;;-146.21;100.00
20895;BME280;10607;42.066;24.742;2022-08-19T12:34:50;58645.81;;;-146.21;100.00
20895;BME280;10607;42.066;24.742;2022-08-19T12:37:15;58645.81;;;-146.21;100.00
20895;BME280;10607;42.066;24.742;2022-08-19T12:39:42;58645.81;;;-146.21;100.00
20895;BME280;10607;42.066;24.742;2022-08-19T12:42:09;58645.81;;;-146.21;100.00
20895;BME280;10607;42.066;24.742;2022-08-19T12:44:37;58645.81;;;-146.21;100.00
20895;BME280;10607;42.066;24.742;2022-08-19T12:47:03;58645.81;;;-146.21;100.00
20895;BME280;10607;42.066;24.742;2022-08-19T12:49:30;58645.81;;;-146.21;100.00
20895;BME280;10607;42.066;24.742;2022-08-19T12:51:57;58645.81;;;-146.21;100.00